Time;durP1;ratioP1;P1;durP2;ratioP2;P2;SDS_P1;SDS_P2;PMS_P1;PMS_P2;Temp;Humidity;BMP_temperature;BMP_pressure;BME280_temperature;BME280_humidity;BME280_pressure;Samples;Min_cycle;Max_cycle;Signal;HPM_P1;HPM_P2
2021/08/22 00:01:59;;;;;;;16.92;9.07;;;;;;;18.15;99.64;96775.81;5020360;28;20410;-65
2021/08/22 00:04:24;;;;;;;15.48;8.48;;;;;;;18.14;100.00;96768.69;5016182;28;20049;-65
2021/08/22 00:06:50;;;;;;;14.32;9.57;;;;;;;18.12;100.00;96763.56;5027361;28;20049;-65
2021/08/22 00:09:15;;;;;;;15.68;8.90;;;;;;;18.49;100.00;96769.41;5019045;28;20124;-63
2021/08/22 00:11:41;;;;;;;24.30;9.75;;;;;;;18.81;99.55;96771.75;5019929;28;20044;-65
2021/08/22 00:14:06;;;;;;;19.55;9.30;;;;;;;18.96;98.83;96771.53;5015264;28;20040;-65
2021/08/22 00:16:32;;;;;;;16.85;9.43;;;;;;;19.16;97.51;96763.28;5020805;28;20033;-64
2021/08/22 00:18:57;;;;;;;14.10;8.43;;;;;;;19.04;98.00;96759.91;5021186;28;20037;-65
2021/08/22 00:21:23;;;;;;;14.50;8.75;;;;;;;19.08;96.34;96752.28;5015038;28;20641;-65
2021/08/22 00:23:48;;;;;;;13.82;8.38;;;;;;;19.04;95.34;96746.03;5019725;28;20173;-64
2021/08/22 00:26:14;;;;;;;16.27;9.05;;;;;;;18.44;97.60;96739.38;5013937;28;20038;-65
2021/08/22 00:28:39;;;;;;;13.85;9.48;;;;;;;17.72;100.00;96724.44;5019949;28;20469;-65
2021/08/22 00:31:05;;;;;;;16.52;10.30;;;;;;;17.39;100.00;96720.41;4997338;28;20483;-64
2021/08/22 00:33:30;;;;;;;20.77;11.38;;;;;;;17.17;100.00;96726.16;5001433;28;20038;-65
2021/08/22 00:35:56;;;;;;;22.75;11.07;;;;;;;17.16;100.00;96737.63;5001726;28;20061;-65
2021/08/22 00:38:21;;;;;;;16.15;10.25;;;;;;;17.35;100.00;96761.19;4996233;28;23541;-64
2021/08/22 00:40:50;;;;;;;20.77;10.88;;;;;;;17.72;100.00;96770.75;4983455;28;20177;-64
2021/08/22 00:43:15;;;;;;;17.67;9.95;;;;;;;17.95;100.00;96790.28;4995153;28;20395;-64
2021/08/22 00:45:44;;;;;;;14.57;9.63;;;;;;;18.04;100.00;96803.66;5001009;28;20030;-64
2021/08/22 00:48:12;;;;;;;13.13;8.25;;;;;;;18.39;100.00;96823.03;5000816;28;20073;-63
2021/08/22 00:50:37;;;;;;;15.85;8.93;;;;;;;18.41;100.00;96834.50;4999991;28;20056;-62
2021/08/22 00:53:04;;;;;;;12.48;9.10;;;;;;;18.22;100.00;96831.16;5018066;28;20112;-63
2021/08/22 00:55:30;;;;;;;17.45;9.77;;;;;;;18.29;100.00;96817.22;5023175;28;20038;-62
2021/08/22 00:57:55;;;;;;;19.70;9.60;;;;;;;18.68;100.00;96809.56;5021760;28;20053;-63
2021/08/22 01:00:21;;;;;;;14.23;8.18;;;;;;;18.80;100.00;96811.78;5007085;28;20092;-65
2021/08/22 01:02:54;;;;;;;13.55;8.10;;;;;;;19.03;97.87;96811.09;4999788;28;20156;-63
2021/08/22 01:05:55;;;;;;;15.27;9.63;;;;;;;18.95;99.28;96815.16;5008037;28;20430;-63
2021/08/22 01:08:25;;;;;;;16.00;8.18;;;;;;;19.24;97.61;96806.38;4982589;28;20034;-64
2021/08/22 01:11:01;;;;;;;16.38;9.13;;;;;;;19.24;97.09;96803.59;5000668;28;20037;-63
2021/08/22 01:13:33;;;;;;;15.35;9.23;;;;;;;19.12;98.05;96816.09;4995069;28;20091;-64
2021/08/22 01:16:03;;;;;;;15.55;8.68;;;;;;;19.01;99.07;96826.56;5009621;28;20033;-65
2021/08/22 01:18:30;;;;;;;13.98;9.10;;;;;;;18.73;100.00;96831.31;5006551;28;20449;-65
2021/08/22 01:21:12;;;;;;;16.40;9.60;;;;;;;18.55;100.00;96856.50;5017635;28;20042;-65
2021/08/22 01:24:03;;;;;;;12.43;9.05;;;;;;;18.24;100.00;96886.97;5003911;28;20041;-65
2021/08/22 01:26:37;;;;;;;14.90;9.50;;;;;;;18.43;100.00;96896.66;5024354;28;20045;-64
2021/08/22 01:29:03;;;;;;;16.95;9.68;;;;;;;18.38;100.00;96891.56;5023494;28;20353;-63
2021/08/22 01:31:36;;;;;;;14.32;10.10;;;;;;;18.31;100.00;96903.53;5019729;28;20080;-64
2021/08/22 01:34:02;;;;;;;17.00;10.38;;;;;;;18.25;100.00;96898.84;5018444;28;20040;-63
2021/08/22 01:36:28;;;;;;;16.17;10.48;;;;;;;18.11;100.00;96875.63;5016891;28;20037;-64
2021/08/22 01:38:54;;;;;;;20.00;11.57;;;;;;;17.83;100.00;96854.50;5001935;28;20041;-64
2021/08/22 01:41:24;;;;;;;17.33;10.38;;;;;;;18.01;100.00;96881.28;5014335;28;20041;-65
2021/08/22 01:43:51;;;;;;;18.33;11.02;;;;;;;18.12;100.00;96895.81;5018896;28;20045;-65
2021/08/22 01:46:21;;;;;;;24.38;10.57;;;;;;;18.29;100.00;96930.91;5014610;28;20401;-65
2021/08/22 01:48:47;;;;;;;18.58;10.77;;;;;;;18.80;100.00;96944.16;5019925;28;20042;-65
2021/08/22 01:51:12;;;;;;;19.00;10.70;;;;;;;18.67;100.00;96946.69;5014381;28;20037;-65
2021/08/22 01:53:38;;;;;;;14.80;10.55;;;;;;;18.66;100.00;96959.78;5019833;28;20038;-65
2021/08/22 01:56:04;;;;;;;14.93;10.00;;;;;;;18.63;100.00;96951.50;5016184;28;20033;-64
2021/08/22 01:58:29;;;;;;;16.08;10.55;;;;;;;18.44;100.00;96950.13;5021274;28;20064;-66
2021/08/22 02:00:55;;;;;;;17.27;11.88;;;;;;;18.17;100.00;96947.22;5024553;28;20042;-65
2021/08/22 02:03:35;;;;;;;22.98;12.73;;;;;;;18.11;100.00;96944.13;5018369;28;20037;-65
2021/08/22 02:06:09;;;;;;;16.05;10.50;;;;;;;18.14;100.00;96937.78;4987097;28;20041;-65
2021/08/22 02:08:36;;;;;;;15.55;9.48;;;;;;;18.33;100.00;96939.19;5019905;28;20033;-63
2021/08/22 02:11:10;;;;;;;14.68;9.55;;;;;;;18.48;100.00;96939.81;5022321;28;20048;-64
2021/08/22 02:13:39;;;;;;;13.50;9.10;;;;;;;18.51;100.00;96939.75;5019458;28;20054;-66
2021/08/22 02:16:07;;;;;;;15.47;8.90;;;;;;;18.45;100.00;96944.16;5017625;28;20029;-63
2021/08/22 02:18:38;;;;;;;12.93;8.18;;;;;;;18.49;100.00;96946.91;5023896;28;20548;-65
2021/08/22 02:21:04;;;;;;;15.02;9.25;;;;;;;18.39;100.00;96951.38;5020029;28;20049;-63
2021/08/22 02:23:30;;;;;;;15.57;9.45;;;;;;;18.26;100.00;96956.66;5022895;28;20052;-64
2021/08/22 02:25:55;;;;;;;16.00;8.80;;;;;;;18.24;100.00;96961.03;5006324;28;20120;-66
2021/08/22 02:28:21;;;;;;;15.18;9.38;;;;;;;18.29;100.00;96961.38;5018651;28;20084;-64
2021/08/22 02:30:50;;;;;;;12.73;8.40;;;;;;;18.40;100.00;96961.28;5031771;28;20069;-66
2021/08/22 02:33:15;;;;;;;11.60;6.00;;;;;;;18.50;100.00;96957.59;5017864;28;20038;-65
2021/08/22 02:35:41;;;;;;;9.95;5.55;;;;;;;18.64;100.00;96948.31;5036388;28;20080;-65
2021/08/22 02:38:06;;;;;;;9.20;4.45;;;;;;;18.83;100.00;96946.94;5032066;28;20050;-66
2021/08/22 02:40:32;;;;;;;6.07;4.18;;;;;;;18.86;99.90;96937.00;5025060;28;20045;-66
2021/08/22 02:42:58;;;;;;;9.18;4.25;;;;;;;18.88;99.63;96924.28;5037021;28;20497;-65
2021/08/22 02:45:23;;;;;;;7.93;3.85;;;;;;;18.79;98.66;96912.09;5019811;28;20033;-65
2021/08/22 02:47:49;;;;;;;6.22;3.75;;;;;;;18.72;99.18;96882.44;5032920;28;20048;-65
2021/08/22 02:50:15;;;;;;;7.55;3.53;;;;;;;18.68;99.36;96895.56;5016108;28;20549;-66
2021/08/22 02:52:41;;;;;;;7.03;2.85;;;;;;;18.65;96.79;96894.41;5027065;23;20093;-62
2021/08/22 02:55:07;;;;;;;5.80;2.97;;;;;;;18.65;97.42;96899.94;4968573;28;20045;-61
2021/08/22 02:57:32;;;;;;;7.60;3.70;;;;;;;18.44;98.63;96900.22;4995209;28;20128;-62
2021/08/22 02:59:58;;;;;;;7.63;3.50;;;;;;;18.21;100.00;96906.44;5007196;28;20065;-61
2021/08/22 03:02:23;;;;;;;6.03;3.70;;;;;;;18.12;100.00;96901.38;4997498;28;20062;-61
2021/08/22 03:04:49;;;;;;;8.65;3.85;;;;;;;18.06;100.00;96897.44;4990320;28;20044;-63
2021/08/22 03:07:15;;;;;;;8.70;3.45;;;;;;;17.87;100.00;96902.38;4992393;28;20108;-63
2021/08/22 03:09:40;;;;;;;8.07;4.18;;;;;;;17.72;100.00;96901.69;4985688;28;20045;-63
2021/08/22 03:12:06;;;;;;;6.85;3.88;;;;;;;17.61;100.00;96905.75;4981623;28;20038;-64
2021/08/22 03:14:31;;;;;;;7.93;3.28;;;;;;;17.77;100.00;96909.56;4998594;28;20033;-63
2021/08/22 03:16:57;;;;;;;5.70;3.08;;;;;;;17.90;100.00;96920.19;5002055;28;20052;-63
2021/08/22 03:19:22;;;;;;;5.90;3.20;;;;;;;18.18;100.00;96916.34;4984793;28;20053;-62
2021/08/22 03:21:48;;;;;;;5.93;3.97;;;;;;;18.41;99.01;96918.47;4988798;28;20039;-62
2021/08/22 03:24:14;;;;;;;8.90;3.50;;;;;;;18.27;99.58;96918.63;5003328;28;20046;-63
2021/08/22 03:26:40;;;;;;;6.50;3.38;;;;;;;18.14;100.00;96913.59;5016476;28;20061;-63
2021/08/22 03:29:06;;;;;;;5.60;2.75;;;;;;;18.19;99.26;96914.38;5003417;28;20088;-63
2021/08/22 03:31:32;;;;;;;4.97;2.60;;;;;;;18.36;98.26;96916.16;5007520;28;20450;-62
2021/08/22 03:33:58;;;;;;;5.85;2.97;;;;;;;18.13;99.91;96902.91;4992309;28;20099;-63
2021/08/22 03:36:23;;;;;;;10.20;2.75;;;;;;;18.25;98.03;96905.16;4995178;28;20572;-62
2021/08/22 03:38:49;;;;;;;3.85;2.50;;;;;;;18.47;96.30;96902.16;4995785;28;20136;-63
2021/08/22 03:41:15;;;;;;;5.60;2.97;;;;;;;18.42;96.56;96908.97;4999106;28;20052;-63
2021/08/22 03:43:40;;;;;;;5.97;2.70;;;;;;;18.39;95.90;96904.25;4991977;28;20449;-63
2021/08/22 03:46:06;;;;;;;5.55;2.67;;;;;;;18.26;96.73;96905.97;4983829;28;20066;-64
2021/08/22 03:48:32;;;;;;;4.75;2.88;;;;;;;18.02;99.64;96911.34;4985560;28;20610;-63
2021/08/22 03:50:57;;;;;;;6.28;2.72;;;;;;;17.89;100.00;96901.97;4995247;28;20161;-62
2021/08/22 03:53:23;;;;;;;5.30;2.97;;;;;;;18.16;99.34;96896.56;4986271;28;20640;-64
2021/08/22 03:55:48;;;;;;;5.80;3.08;;;;;;;18.24;99.12;96897.25;4990433;28;20046;-62
2021/08/22 03:58:14;;;;;;;9.00;3.17;;;;;;;18.25;98.27;96905.16;4984088;28;20538;-62
2021/08/22 04:00:40;;;;;;;4.32;2.70;;;;;;;18.19;99.40;96908.81;4985991;28;20129;-62
2021/08/22 04:03:06;;;;;;;7.63;3.00;;;;;;;18.10;100.00;96917.63;4981778;28;20070;-61
2021/08/22 04:05:32;;;;;;;6.03;2.75;;;;;;;18.05;100.00;96920.84;4992432;28;20040;-63
2021/08/22 04:07:59;;;;;;;5.20;2.42;;;;;;;18.12;100.00;96921.53;4990652;28;20415;-63
2021/08/22 04:10:26;;;;;;;5.63;2.53;;;;;;;18.49;99.20;96919.16;4994328;28;20052;-62
2021/08/22 04:12:53;;;;;;;3.47;2.33;;;;;;;18.78;97.08;96929.94;5002557;28;20121;-63
2021/08/22 04:15:18;;;;;;;5.13;2.35;;;;;;;18.80;97.40;96925.53;4984698;28;20092;-63
2021/08/22 04:17:44;;;;;;;4.55;2.90;;;;;;;18.78;97.35;96935.47;4987554;28;20038;-63
2021/08/22 04:20:10;;;;;;;5.88;3.38;;;;;;;18.79;96.82;96920.41;4979153;28;20105;-61
2021/08/22 04:22:37;;;;;;;6.40;2.95;;;;;;;18.67;98.03;96889.25;4990073;28;20070;-63
2021/08/22 04:25:12;;;;;;;5.60;3.35;;;;;;;18.57;100.00;96883.84;4978498;28;20042;-61
2021/08/22 04:27:39;;;;;;;7.00;2.97;;;;;;;18.52;100.00;96901.72;4986834;28;20053;-61
2021/08/22 04:30:05;;;;;;;6.07;3.58;;;;;;;18.56;100.00;96913.53;4997082;28;20042;-62
2021/08/22 04:32:31;;;;;;;7.95;3.95;;;;;;;18.30;100.00;96940.78;4992793;28;20070;-64
2021/08/22 04:34:56;;;;;;;7.70;3.92;;;;;;;18.09;100.00;96935.44;4999134;28;20491;-64
2021/08/22 04:37:22;;;;;;;7.57;4.13;;;;;;;18.12;100.00;96929.84;4984339;28;20054;-64
2021/08/22 04:39:47;;;;;;;7.00;3.45;;;;;;;18.30;100.00;96926.91;4982302;28;20039;-64
2021/08/22 04:42:13;;;;;;;5.53;3.63;;;;;;;18.47;100.00;96910.47;4976742;28;20046;-62
2021/08/22 04:44:38;;;;;;;8.07;4.32;;;;;;;18.45;100.00;96904.56;4981350;28;20057;-64
2021/08/22 04:47:05;;;;;;;7.38;3.80;;;;;;;18.47;99.71;96924.34;4976583;28;20042;-62
2021/08/22 04:49:32;;;;;;;7.22;4.03;;;;;;;18.29;99.73;96905.13;4990428;28;20133;-61
2021/08/22 04:51:57;;;;;;;6.25;4.03;;;;;;;18.26;100.00;96911.53;4977669;28;20049;-64
2021/08/22 04:54:25;;;;;;;6.82;4.25;;;;;;;18.07;100.00;96901.81;4985747;28;20050;-64
2021/08/22 04:56:50;;;;;;;7.53;3.92;;;;;;;18.13;100.00;96894.59;4995808;28;20042;-62
2021/08/22 04:59:16;;;;;;;5.47;3.92;;;;;;;18.00;100.00;96888.81;4987768;28;20042;-64
2021/08/22 05:01:42;;;;;;;8.90;4.60;;;;;;;17.87;100.00;96888.53;4986491;28;20042;-64
2021/08/22 05:04:07;;;;;;;7.38;4.75;;;;;;;17.87;100.00;96891.31;4985408;28;20065;-65
2021/08/22 05:06:33;;;;;;;7.85;4.22;;;;;;;17.90;100.00;96901.56;4984272;28;20065;-63
2021/08/22 05:08:58;;;;;;;7.60;4.45;;;;;;;18.07;100.00;96908.13;4994891;28;20109;-63
2021/08/22 05:11:24;;;;;;;7.43;3.60;;;;;;;18.23;100.00;96926.97;4974965;28;20483;-63
2021/08/22 05:13:49;;;;;;;6.63;4.20;;;;;;;18.12;100.00;96937.41;4982336;28;20045;-63
2021/08/22 05:16:15;;;;;;;7.43;3.83;;;;;;;18.27;100.00;96941.59;4973913;28;20045;-62
2021/08/22 05:18:40;;;;;;;7.97;3.97;;;;;;;18.37;100.00;96933.59;4988964;28;20395;-63
2021/08/22 05:21:05;;;;;;;6.65;4.07;;;;;;;18.51;100.00;96922.31;4975746;28;20412;-62
2021/08/22 05:23:31;;;;;;;6.88;4.55;;;;;;;18.53;100.00;96922.72;4987626;28;20050;-63
2021/08/22 05:25:57;;;;;;;13.35;4.38;;;;;;;18.56;100.00;96927.41;4994874;28;20469;-63
2021/08/22 05:28:23;;;;;;;6.95;4.13;;;;;;;18.42;100.00;96920.06;4984571;28;20038;-63
2021/08/22 05:30:48;;;;;;;6.65;4.32;;;;;;;18.40;100.00;96916.91;4990716;28;20041;-62
2021/08/22 05:33:14;;;;;;;6.97;4.13;;;;;;;18.29;100.00;96910.69;4975772;28;20126;-62
2021/08/22 05:35:39;;;;;;;6.53;4.10;;;;;;;18.14;100.00;96916.38;4985363;28;20053;-63
2021/08/22 05:38:08;;;;;;;7.65;4.55;;;;;;;18.08;100.00;96914.47;4978562;28;20042;-62
2021/08/22 05:40:34;;;;;;;6.53;4.40;;;;;;;17.94;100.00;96902.31;4988282;28;20065;-62
2021/08/22 05:43:00;;;;;;;7.30;4.80;;;;;;;17.94;100.00;96907.84;4980963;28;20108;-61
2021/08/22 05:45:26;;;;;;;6.43;4.13;;;;;;;18.05;100.00;96913.31;4976554;28;20049;-63
2021/08/22 05:47:52;;;;;;;7.47;4.13;;;;;;;18.20;100.00;96919.47;4979452;28;20038;-62
2021/08/22 05:50:18;;;;;;;7.57;4.55;;;;;;;18.31;100.00;96925.72;4984162;28;20038;-62
2021/08/22 05:52:43;;;;;;;6.28;4.07;;;;;;;18.28;100.00;96931.31;4990946;28;20378;-64
2021/08/22 05:55:10;;;;;;;8.77;4.63;;;;;;;18.32;100.00;96932.81;4981290;28;20050;-64
2021/08/22 05:57:36;;;;;;;7.43;4.82;;;;;;;18.62;100.00;96925.75;4986112;28;20066;-64
2021/08/22 06:00:03;;;;;;;7.00;3.90;;;;;;;18.71;100.00;96919.72;4984075;28;20093;-64
2021/08/22 06:02:29;;;;;;;6.03;4.40;;;;;;;18.80;100.00;96922.78;4986863;28;20039;-64
2021/08/22 06:04:55;;;;;;;6.30;4.47;;;;;;;18.84;100.00;96911.66;5010588;28;20493;-64
2021/08/22 06:07:20;;;;;;;6.53;4.10;;;;;;;19.06;100.00;96912.16;5001539;28;20376;-63
2021/08/22 06:09:57;;;;;;;9.57;4.55;;;;;;;18.86;100.00;96914.81;5002450;28;20530;-62
2021/08/22 06:12:23;;;;;;;6.82;4.15;;;;;;;19.09;100.00;96912.09;4997011;28;20049;-61
2021/08/22 06:14:49;;;;;;;8.10;4.00;;;;;;;19.37;100.00;96903.78;4995820;28;20104;-61
2021/08/22 06:17:14;;;;;;;6.45;4.10;;;;;;;19.34;99.64;96907.38;4976530;28;20046;-62
2021/08/22 06:19:40;;;;;;;7.50;5.28;;;;;;;19.44;100.00;96896.09;4990998;28;20069;-62
2021/08/22 06:22:06;;;;;;;6.43;4.10;;;;;;;19.67;99.87;96889.78;4976790;28;20077;-62
2021/08/22 06:24:32;;;;;;;6.75;4.45;;;;;;;19.46;99.18;96890.13;4992208;28;20073;-62
2021/08/22 06:26:59;;;;;;;8.02;4.82;;;;;;;19.39;100.00;96890.25;4994264;28;20096;-62
2021/08/22 06:29:24;;;;;;;9.38;4.07;;;;;;;19.58;99.22;96891.56;4980032;28;20047;-62
2021/08/22 06:31:51;;;;;;;5.53;3.70;;;;;;;19.97;97.83;96898.44;4992895;28;20050;-62
2021/08/22 06:34:16;;;;;;;7.97;4.05;;;;;;;20.17;95.31;96901.28;4992595;28;20050;-62
2021/08/22 06:36:42;;;;;;;8.05;4.07;;;;;;;20.37;95.99;96893.75;4997801;28;20490;-63
2021/08/22 06:39:09;;;;;;;5.45;3.47;;;;;;;20.63;95.88;96902.41;4988181;28;20206;-62
2021/08/22 06:41:34;;;;;;;6.55;3.70;;;;;;;21.10;92.13;96899.41;4987842;28;20049;-62
2021/08/22 06:44:01;;;;;;;5.93;3.67;;;;;;;21.43;88.10;96904.25;4986880;28;20050;-63
2021/08/22 06:46:26;;;;;;;6.95;3.17;;;;;;;21.99;85.72;96894.97;4985363;28;20057;-64
2021/08/22 06:48:52;;;;;;;5.80;3.88;;;;;;;22.01;83.54;96887.72;4990721;28;20046;-64
2021/08/22 06:51:17;;;;;;;7.45;3.90;;;;;;;;;;4987033;28;20054;-64
2021/08/22 06:53:43;;;;;;;6.20;3.08;;;;;;;22.22;83.14;96871.63;4982449;28;20050;-63
2021/08/22 06:56:08;;;;;;;4.90;3.10;;;;;;;22.97;78.98;96871.53;4988455;28;20523;-63
2021/08/22 06:58:34;;;;;;;6.57;3.60;;;;;;;23.40;75.29;96873.78;4987152;28;20050;-62
2021/08/22 07:01:18;;;;;;;4.85;3.28;;;;;;;23.71;73.98;96870.38;5006603;28;20038;-69
2021/08/22 07:03:44;;;;;;;4.70;3.08;;;;;;;23.19;76.10;96882.84;5005099;28;20085;-63
2021/08/22 07:06:09;;;;;;;6.40;3.80;;;;;;;23.19;73.51;96880.06;4984405;28;20073;-63
2021/08/22 07:08:35;;;;;;;5.55;3.70;;;;;;;22.66;76.10;96877.63;4996771;28;20038;-63
2021/08/22 07:11:00;;;;;;;4.10;2.58;;;;;;;22.90;74.06;96875.31;4999841;28;20410;-62
2021/08/22 07:13:26;;;;;;;5.28;3.38;;;;;;;22.99;72.98;96866.25;4980712;28;20046;-63
2021/08/22 07:15:51;;;;;;;5.13;3.20;;;;;;;23.29;72.54;96871.34;4982550;28;20114;-61
2021/08/22 07:18:17;;;;;;;5.88;3.25;;;;;;;23.73;70.79;96870.72;4986511;28;20140;-63
2021/08/22 07:20:43;;;;;;;5.10;3.00;;;;;;;23.85;70.04;96875.53;4996021;28;20050;-64
2021/08/22 07:23:08;;;;;;;6.00;3.30;;;;;;;23.75;70.00;96875.88;4990501;28;20041;-64
2021/08/22 07:25:34;;;;;;;6.22;2.92;;;;;;;23.32;71.96;96882.84;5002712;28;20046;-62
2021/08/22 07:27:59;;;;;;;6.85;3.40;;;;;;;23.06;72.20;96888.44;4992733;28;20137;-63
2021/08/22 07:30:25;;;;;;;6.18;3.47;;;;;;;22.79;76.04;96894.38;4994183;28;20054;-62
2021/08/22 07:32:55;;;;;;;6.63;3.38;;;;;;;22.99;75.93;96888.59;4987464;28;20133;-62
2021/08/22 07:35:21;;;;;;;6.90;3.17;;;;;;;23.25;73.13;96889.47;4968448;28;20125;-64
2021/08/22 07:37:47;;;;;;;5.40;2.97;;;;;;;23.50;72.52;96896.25;4988500;28;20129;-63
2021/08/22 07:40:12;;;;;;;4.95;3.00;;;;;;;23.82;71.43;96892.44;4989155;28;20407;-62
2021/08/22 07:42:38;;;;;;;7.80;3.80;;;;;;;23.20;71.97;96887.22;4989351;28;20420;-61
2021/08/22 07:45:04;;;;;;;6.60;2.83;;;;;;;23.86;69.62;96884.72;4986855;28;20501;-64
2021/08/22 07:47:29;;;;;;;7.50;3.38;;;;;;;23.76;68.49;96894.22;4986703;28;20041;-64
2021/08/22 07:49:55;;;;;;;5.28;3.30;;;;;;;23.91;67.81;96895.31;4987977;28;20580;-63
2021/08/22 07:52:24;;;;;;;6.32;3.40;;;;;;;23.56;71.74;96898.03;4979772;28;20038;-64
2021/08/22 07:54:50;;;;;;;4.63;3.22;;;;;;;23.88;69.74;96893.44;4992704;28;20034;-64
2021/08/22 07:57:17;;;;;;;6.55;2.95;;;;;;;24.19;67.26;96895.59;4994753;28;20039;-63
2021/08/22 07:59:43;;;;;;;5.25;3.42;;;;;;;23.60;70.12;96893.09;5002914;28;20034;-64
2021/08/22 08:02:08;;;;;;;5.90;3.30;;;;;;;23.67;67.97;96897.69;4976477;28;20082;-62
2021/08/22 08:04:34;;;;;;;6.35;3.53;;;;;;;23.18;69.10;96898.84;4988414;28;20073;-63
2021/08/22 08:06:59;;;;;;;8.07;3.45;;;;;;;22.88;70.26;96906.47;4992686;28;20406;-64
2021/08/22 08:09:25;;;;;;;5.07;3.35;;;;;;;22.97;70.80;96908.59;4995247;28;20455;-63
2021/08/22 08:11:50;;;;;;;7.45;3.38;;;;;;;23.49;68.89;96917.84;5000082;28;20052;-63
2021/08/22 08:14:16;;;;;;;5.35;3.17;;;;;;;23.52;70.39;96919.75;4979811;28;20042;-64
2021/08/22 08:16:42;;;;;;;5.78;3.60;;;;;;;23.58;68.98;96914.38;4988763;28;20129;-63
2021/08/22 08:19:07;;;;;;;5.80;3.00;;;;;;;23.84;67.36;96921.53;4985584;28;20042;-63
2021/08/22 08:21:33;;;;;;;5.68;3.55;;;;;;;23.40;67.88;96914.94;5002309;28;20080;-62
2021/08/22 08:23:58;;;;;;;5.50;3.38;;;;;;;23.52;68.68;96922.53;4990698;28;20267;-63
2021/08/22 08:26:23;;;;;;;5.18;3.30;;;;;;;23.39;68.26;96922.53;5003415;28;20160;-63
2021/08/22 08:28:49;;;;;;;6.63;3.30;;;;;;;23.25;69.46;96928.56;5006129;28;20525;-62
2021/08/22 08:31:16;;;;;;;5.38;3.40;;;;;;;23.48;69.71;96931.03;4989909;28;20553;-63
2021/08/22 08:33:42;;;;;;;5.30;3.15;;;;;;;22.88;70.15;96933.63;4990839;28;20039;-64
2021/08/22 08:36:07;;;;;;;4.90;3.28;;;;;;;23.30;68.49;96928.03;4988210;28;20045;-64
2021/08/22 08:38:33;;;;;;;8.10;3.80;;;;;;;23.52;67.90;96924.56;5010253;28;20038;-64
2021/08/22 08:41:03;;;;;;;4.65;2.90;;;;;;;24.04;64.98;96921.25;4998286;28;20069;-64
2021/08/22 08:43:29;;;;;;;8.05;3.33;;;;;;;23.78;66.06;96928.88;5001386;28;20061;-64
2021/08/22 08:46:00;;;;;;;5.18;3.08;;;;;;;23.94;65.76;96933.59;5008914;28;20046;-64
2021/08/22 08:48:40;;;;;;;6.50;3.78;;;;;;;23.42;67.50;96938.41;4996267;28;20042;-64
2021/08/22 08:51:08;;;;;;;5.18;3.22;;;;;;;24.20;64.95;96941.91;4985762;28;20069;-64
2021/08/22 08:53:39;;;;;;;9.57;3.95;;;;;;;23.64;66.21;96935.72;4994037;28;20049;-63
2021/08/22 08:56:36;;;;;;;5.70;3.65;;;;;;;23.03;68.60;96945.94;4998534;28;20046;-63
2021/08/22 08:59:02;;;;;;;6.00;3.40;;;;;;;22.95;70.16;96941.00;4990848;28;20085;-64
2021/08/22 09:01:28;;;;;;;7.45;3.65;;;;;;;23.19;67.70;96941.50;4986979;28;20220;-62
2021/08/22 09:04:19;;;;;;;6.07;3.50;;;;;;;22.93;69.06;96935.84;4987666;28;20119;-62
2021/08/22 09:07:00;;;;;;;4.65;3.45;;;;;;;22.91;68.95;96941.09;4991280;28;20062;-62
2021/08/22 09:09:44;;;;;;;5.10;3.63;;;;;;;23.01;69.43;96940.03;4980796;28;20073;-64
2021/08/22 09:12:47;;;;;;;9.35;3.00;;;;;;;22.84;69.59;96930.91;4993490;28;20057;-65
2021/08/22 09:15:50;;;;;;;9.15;6.05;;;;;;;23.08;68.88;96941.84;4997400;28;20065;-65
2021/08/22 09:18:59;;;;;;;5.35;3.67;;;;;;;23.09;69.11;96940.63;4983463;28;20037;-64
2021/08/22 09:21:54;;;;;;;5.97;3.17;;;;;;;23.45;68.43;96936.75;4975387;28;20050;-64
2021/08/22 09:25:19;;;;;;;6.00;3.30;;;;;;;23.38;67.68;96934.94;4986506;28;20050;-64
2021/08/22 09:28:06;;;;;;;7.00;3.40;;;;;;;23.31;67.17;96945.56;5000916;28;20045;-62
2021/08/22 09:31:19;;;;;;;7.53;3.40;;;;;;;23.56;66.96;96931.59;4996138;28;20096;-62
2021/08/22 09:34:25;;;;;;;7.25;3.35;;;;;;;23.90;65.23;96941.31;4988880;28;20139;-63
2021/08/22 09:36:57;;;;;;;6.15;3.30;;;;;;;23.92;64.71;96936.06;4979372;28;20054;-62
2021/08/22 09:39:28;;;;;;;6.45;3.03;;;;;;;24.11;64.50;96934.25;4988626;28;20046;-63
2021/08/22 09:42:31;;;;;;;5.28;2.85;;;;;;;23.79;63.71;96932.47;4995845;28;20097;-63
2021/08/22 09:45:34;;;;;;;6.10;3.20;;;;;;;23.59;64.89;96929.94;4984246;28;20081;-63
2021/08/22 09:48:11;;;;;;;7.80;3.10;;;;;;;23.57;65.15;96929.56;4992423;28;20042;-60
2021/08/22 09:51:09;;;;;;;4.70;2.90;;;;;;;23.60;64.93;96932.25;4987987;28;20384;-65
2021/08/22 09:54:05;;;;;;;5.30;3.13;;;;;;;23.65;65.06;96936.50;4987313;28;20042;-63
2021/08/22 09:57:08;;;;;;;4.75;3.30;;;;;;;23.65;64.70;96937.28;4993022;28;20557;-64
2021/08/22 10:00:00;;;;;;;7.97;3.63;;;;;;;23.26;65.08;96939.31;4992668;28;20042;-65
2021/08/22 10:03:10;;;;;;;7.38;3.67;;;;;;;23.42;65.48;96934.84;4992542;28;20237;-63
2021/08/22 10:05:58;;;;;;;7.55;5.13;;;;;;;23.32;65.98;96933.94;5012746;28;20042;-64
2021/08/22 10:08:32;;;;;;;10.02;3.00;;;;;;;23.29;66.00;96943.22;4991969;28;20807;-63
2021/08/22 10:11:00;;;;;;;5.28;3.20;;;;;;;23.25;66.65;96939.75;4989661;28;20189;-64
2021/08/22 10:13:26;;;;;;;6.43;4.22;;;;;;;23.06;68.07;96938.69;4988064;28;20141;-64
2021/08/22 10:15:52;;;;;;;7.97;4.65;;;;;;;23.21;67.11;96930.66;4998085;28;20103;-63
2021/08/22 10:18:25;;;;;;;7.38;4.13;;;;;;;22.68;67.31;96923.38;4997923;28;20034;-63
2021/08/22 10:20:53;;;;;;;6.85;3.28;;;;;;;22.60;68.73;96929.59;4985495;28;20458;-62
2021/08/22 10:23:54;;;;;;;5.90;3.30;;;;;;;22.61;69.56;96929.16;4986033;28;20057;-63
2021/08/22 10:26:49;;;;;;;15.48;10.35;;;;;;;23.31;67.51;96923.97;4984535;28;20046;-63
2021/08/22 10:29:18;;;;;;;6.65;3.72;;;;;;;23.90;64.37;96924.53;4981406;28;20630;-63
2021/08/22 10:31:49;;;;;;;4.97;3.05;;;;;;;23.93;64.71;96909.66;4989357;28;20049;-64
2021/08/22 10:34:27;;;;;;;6.63;3.22;;;;;;;24.55;62.39;96919.56;4983243;28;20101;-64
2021/08/22 10:36:54;;;;;;;7.35;3.42;;;;;;;24.45;62.82;96918.66;4991881;28;20101;-64
2021/08/22 10:39:19;;;;;;;6.57;3.03;;;;;;;24.48;62.18;96906.56;4995932;28;20054;-65
2021/08/22 10:41:45;;;;;;;6.97;3.60;;;;;;;24.66;62.03;96907.97;5001903;28;20402;-64
2021/08/22 10:44:32;;;;;;;5.80;3.42;;;;;;;24.98;60.47;96901.94;4998401;28;20483;-62
2021/08/22 10:46:58;;;;;;;6.70;2.90;;;;;;;24.42;62.08;96908.38;4994792;28;20082;-63
2021/08/22 10:49:52;;;;;;;7.13;3.25;;;;;;;24.33;63.36;96894.31;4983225;28;20046;-63
2021/08/22 10:52:21;;;;;;;4.32;2.72;;;;;;;24.57;62.45;96898.25;4980535;28;20077;-61
2021/08/22 10:55:05;;;;;;;5.80;3.65;;;;;;;24.02;62.48;96889.38;4983908;28;20129;-65
2021/08/22 10:57:49;;;;;;;6.13;3.38;;;;;;;23.98;63.86;96892.28;4987022;28;20491;-65
2021/08/22 11:00:27;;;;;;;5.63;3.08;;;;;;;24.11;63.32;96891.47;4993708;28;20043;-63
2021/08/22 11:03:00;;;;;;;6.15;3.42;;;;;;;24.26;62.78;96880.59;4991402;28;20069;-64
2021/08/22 11:05:33;;;;;;;6.60;4.32;;;;;;;23.93;63.92;96886.47;4984131;28;20050;-64
2021/08/22 11:08:22;;;;;;;4.45;2.92;;;;;;;23.75;64.10;96892.63;4992564;28;20042;-64
2021/08/22 11:10:58;;;;;;;;;;;;;;;23.64;65.51;96891.00;4999765;28;20046;-63
2021/08/22 11:13:25;;;;;;;5.45;3.13;;;;;;;23.47;65.64;96884.75;4992323;28;19913;-64
2021/08/22 11:15:50;;;;;;;6.07;2.78;;;;;;;23.19;66.55;96882.84;4993016;28;20137;-64
2021/08/22 11:18:17;;;;;;;6.50;3.00;;;;;;;22.86;67.04;96881.00;4998343;28;20127;-63
2021/08/22 11:20:44;;;;;;;5.95;3.00;;;;;;;22.68;68.40;96889.13;5004367;28;20137;-63
2021/08/22 11:23:16;;;;;;;5.15;3.53;;;;;;;22.49;69.79;96877.69;4998274;28;20050;-62
2021/08/22 11:25:43;;;;;;;5.72;3.40;;;;;;;22.45;70.43;96887.38;5013162;28;20128;-64
2021/08/22 11:28:16;;;;;;;5.57;3.45;;;;;;;22.70;70.24;96883.88;4993376;28;20051;-64
2021/08/22 11:30:43;;;;;;;5.22;3.53;;;;;;;22.21;75.50;96890.38;4995775;28;20133;-64
2021/08/22 11:33:12;;;;;;;6.45;3.78;;;;;;;21.62;80.22;96899.84;5003386;23;20061;-64
2021/08/22 11:35:46;;;;;;;8.43;4.17;;;;;;;21.22;83.68;96906.31;4994003;28;20038;-64
2021/08/22 11:38:13;;;;;;;7.93;3.92;;;;;;;20.38;89.85;96903.66;4996921;28;20046;-65
2021/08/22 11:40:39;;;;;;;7.10;4.25;;;;;;;19.75;92.48;96907.16;5003811;28;20413;-65
2021/08/22 11:43:06;;;;;;;9.27;4.53;;;;;;;19.56;95.61;96918.97;4994300;28;20124;-66